createdAt,value
2022-12-19T00:00:37.360Z,41.87
2022-12-19T00:03:05.256Z,39.83
2022-12-19T00:05:37.663Z,39.00
2022-12-19T00:08:12.411Z,38.07
2022-12-19T00:10:45.281Z,38.73
2022-12-19T00:13:15.565Z,38.83
2022-12-19T00:15:44.919Z,37.10
2022-12-19T00:18:12.715Z,38.73
2022-12-19T00:20:40.562Z,39.47
2022-12-19T00:23:08.881Z,37.80
2022-12-19T00:25:37.110Z,37.77
2022-12-19T00:28:07.697Z,37.70
2022-12-19T00:30:36.045Z,38.70
2022-12-19T00:33:05.301Z,37.27
2022-12-19T00:35:32.902Z,38.90
2022-12-19T00:38:00.660Z,38.90
2022-12-19T00:40:29.543Z,37.23
2022-12-19T00:42:57.624Z,38.80
2022-12-19T00:45:27.896Z,38.03
2022-12-19T00:47:57.749Z,36.30
2022-12-19T00:50:26.748Z,37.53
2022-12-19T00:52:54.366Z,39.00
2022-12-19T00:55:21.984Z,38.77
2022-12-19T00:57:49.664Z,36.00
2022-12-19T01:00:20.737Z,38.00
2022-12-19T01:02:48.525Z,36.43
2022-12-19T01:05:16.525Z,36.17
2022-12-19T01:07:45.623Z,37.23
2022-12-19T01:10:13.273Z,38.50
2022-12-19T01:12:45.858Z,36.70
2022-12-19T01:15:15.490Z,36.83
2022-12-19T01:17:44.341Z,37.97
2022-12-19T01:20:15.395Z,37.87
2022-12-19T01:22:43.126Z,35.53
2022-12-19T01:25:12.670Z,36.13
2022-12-19T01:27:40.562Z,36.33
2022-12-19T01:30:09.425Z,35.87
2022-12-19T01:32:37.692Z,36.80
2022-12-19T01:35:06.189Z,39.10
2022-12-19T01:37:37.765Z,36.57
2022-12-19T01:40:07.180Z,37.93
2022-12-19T01:42:37.864Z,37.80
2022-12-19T01:45:21.736Z,37.57
2022-12-19T01:47:54.685Z,37.63
2022-12-19T01:50:28.365Z,37.87
2022-12-19T01:52:57.925Z,38.73
2022-12-19T01:55:26.414Z,38.30
2022-12-19T01:57:57.778Z,36.53
2022-12-19T02:00:26.989Z,36.90
2022-12-19T02:03:00.426Z,36.83
2022-12-19T02:05:28.387Z,37.60
2022-12-19T02:07:56.307Z,37.93
2022-12-19T02:10:24.172Z,36.27
2022-12-19T02:12:51.823Z,37.27
2022-12-19T02:15:21.948Z,37.03
2022-12-19T02:18:11.971Z,37.37
2022-12-19T02:21:08.848Z,34.90
2022-12-19T02:24:07.339Z,36.03
2022-12-19T02:26:56.827Z,35.63
2022-12-19T02:29:54.265Z,35.53
2022-12-19T02:32:31.807Z,37.73
2022-12-19T02:35:10.436Z,36.37
2022-12-19T02:37:50.743Z,36.40
2022-12-19T02:40:25.031Z,36.77
2022-12-19T02:42:59.507Z,36.10
2022-12-19T02:45:31.691Z,36.80
2022-12-19T02:48:08.379Z,37.43
2022-12-19T02:50:39.986Z,38.60
2022-12-19T02:53:10.612Z,37.20
2022-12-19T02:55:45.168Z,36.87
2022-12-19T02:58:35.948Z,36.37
2022-12-19T03:01:15.473Z,36.57
2022-12-19T03:04:00.869Z,35.30
2022-12-19T03:06:37.914Z,36.57
2022-12-19T03:09:14.914Z,34.97
2022-12-19T03:11:43.813Z,37.37
2022-12-19T03:14:15.106Z,36.87
2022-12-19T03:16:42.943Z,37.20
2022-12-19T03:19:15.103Z,37.77
2022-12-19T03:21:45.647Z,36.03
2022-12-19T03:24:17.788Z,38.90
2022-12-19T03:26:50.379Z,36.67
2022-12-19T03:29:22.396Z,35.83
2022-12-19T03:31:50.925Z,36.40
2022-12-19T03:34:24.669Z,37.90
2022-12-19T03:36:57.205Z,37.23
2022-12-19T03:39:26.842Z,32.93
2022-12-19T03:42:13.433Z,31.60
2022-12-19T03:44:43.750Z,31.57
2022-12-19T03:47:16.400Z,32.37
2022-12-19T03:49:46.372Z,31.30
2022-12-19T03:52:26.673Z,30.57
2022-12-19T03:55:02.190Z,32.30
2022-12-19T03:57:35.956Z,32.73
2022-12-19T04:00:07.129Z,32.50
2022-12-19T04:02:48.911Z,32.17
2022-12-19T04:05:21.946Z,31.10
2022-12-19T04:07:52.156Z,32.13
2022-12-19T04:10:22.883Z,33.23
2022-12-19T04:12:55.043Z,33.13
2022-12-19T04:15:33.505Z,29.83
2022-12-19T04:18:04.968Z,29.70
2022-12-19T04:20:38.830Z,29.67
2022-12-19T04:23:13.091Z,28.13
2022-12-19T04:25:44.375Z,28.43
2022-12-19T04:28:21.461Z,29.77
2022-12-19T04:30:50.680Z,28.13
2022-12-19T04:33:18.766Z,29.63
2022-12-19T04:35:47.799Z,29.20
2022-12-19T04:38:15.591Z,28.70
2022-12-19T04:40:43.288Z,29.63
2022-12-19T04:43:11.360Z,30.87
2022-12-19T04:45:39.089Z,27.97
2022-12-19T04:48:07.634Z,28.83
2022-12-19T04:50:36.781Z,27.87
2022-12-19T04:53:06.004Z,28.97
2022-12-19T04:55:33.709Z,28.00
2022-12-19T04:58:04.028Z,29.20
2022-12-19T05:00:31.733Z,27.80
2022-12-19T05:02:59.586Z,27.70
2022-12-19T05:05:27.537Z,27.93
2022-12-19T05:07:59.404Z,28.33
2022-12-19T05:10:28.487Z,27.47
2022-12-19T05:12:56.069Z,28.37
2022-12-19T05:15:23.776Z,27.53
2022-12-19T05:17:51.442Z,26.97
2022-12-19T05:20:19.265Z,26.57
2022-12-19T05:22:46.955Z,27.70
2022-12-19T05:25:15.616Z,27.80
2022-12-19T05:27:44.788Z,27.17
2022-12-19T05:30:13.202Z,28.93
2022-12-19T05:32:41.041Z,27.90
2022-12-19T05:35:09.053Z,27.43
2022-12-19T05:37:36.763Z,28.37
2022-12-19T05:40:05.735Z,27.67
2022-12-19T05:42:33.752Z,28.30
2022-12-19T05:45:02.958Z,26.63
2022-12-19T05:47:30.566Z,28.10
2022-12-19T05:49:58.254Z,25.90
2022-12-19T05:52:25.975Z,26.77
2022-12-19T05:54:53.602Z,27.53
2022-12-19T05:57:21.686Z,28.33
2022-12-19T05:59:49.363Z,27.83
2022-12-19T06:02:18.508Z,27.80
2022-12-19T06:04:46.283Z,27.37
2022-12-19T06:07:19.212Z,28.43
2022-12-19T06:09:48.447Z,26.50
2022-12-19T06:12:16.150Z,26.90
2022-12-19T06:14:43.806Z,28.03
2022-12-19T06:17:11.632Z,26.43
2022-12-19T06:19:40.649Z,26.30
2022-12-19T06:22:08.347Z,26.00
2022-12-19T06:24:39.467Z,29.13
2022-12-19T06:27:07.512Z,29.23
2022-12-19T06:29:35.181Z,27.20
2022-12-19T06:32:03.002Z,25.90
2022-12-19T06:35:02.175Z,26.97
2022-12-19T06:37:20.118Z,27.27
2022-12-19T06:39:47.782Z,26.43
2022-12-19T06:42:23.407Z,26.50
2022-12-19T06:44:52.142Z,27.97
2022-12-19T06:47:20.053Z,27.13
2022-12-19T06:49:48.381Z,27.80
2022-12-19T06:52:16.661Z,27.63
2022-12-19T06:54:46.087Z,28.77
2022-12-19T06:57:13.793Z,28.70
2022-12-19T06:59:41.456Z,27.67
2022-12-19T07:02:22.605Z,26.63
2022-12-19T07:04:57.954Z,27.67
2022-12-19T07:07:26.065Z,28.00
2022-12-19T07:09:55.215Z,28.33
2022-12-19T07:12:22.867Z,30.07
2022-12-19T07:14:53.578Z,28.33
2022-12-19T07:17:23.496Z,27.90
2022-12-19T07:19:51.597Z,28.53
2022-12-19T07:22:19.674Z,27.33
2022-12-19T07:24:47.502Z,28.00
2022-12-19T07:27:16.821Z,28.17
2022-12-19T07:29:44.479Z,27.37
2022-12-19T07:32:12.225Z,28.07
2022-12-19T07:34:39.873Z,27.73
2022-12-19T07:37:07.978Z,28.33
2022-12-19T07:39:35.718Z,28.93
2022-12-19T07:42:04.143Z,29.17
2022-12-19T07:44:38.800Z,29.20
2022-12-19T07:47:08.997Z,28.43
2022-12-19T07:49:37.257Z,28.10
2022-12-19T07:52:05.247Z,28.07
2022-12-19T07:54:33.158Z,27.87
2022-12-19T07:57:02.163Z,28.23
2022-12-19T07:59:35.628Z,28.17
2022-12-19T08:02:08.340Z,27.90
2022-12-19T08:04:36.201Z,27.87
2022-12-19T08:07:04.424Z,28.50
2022-12-19T08:09:33.473Z,27.03
2022-12-19T08:12:01.367Z,29.33
2022-12-19T08:14:29.228Z,28.73
2022-12-19T08:17:19.687Z,30.90
2022-12-19T08:19:45.841Z,28.87
2022-12-19T08:22:13.563Z,28.13
2022-12-19T08:24:41.178Z,29.43
2022-12-19T08:27:08.834Z,28.20
2022-12-19T08:29:36.556Z,28.07
2022-12-19T08:32:04.824Z,26.77
2022-12-19T08:34:32.865Z,28.07
2022-12-19T08:37:01.853Z,27.20
2022-12-19T08:39:30.066Z,29.27
2022-12-19T08:41:57.725Z,30.07
2022-12-19T08:44:25.421Z,32.93
2022-12-19T08:46:53.234Z,28.53
2022-12-19T08:49:21.303Z,27.63
2022-12-19T08:51:49.184Z,29.73
2022-12-19T08:54:18.198Z,29.00
2022-12-19T08:56:47.167Z,29.03
2022-12-19T08:59:16.079Z,28.50
2022-12-19T09:01:57.748Z,28.80
2022-12-19T09:06:02.281Z,28.97
2022-12-19T09:07:15.235Z,29.33
2022-12-19T09:09:45.223Z,29.43
2022-12-19T09:12:13.263Z,28.80
2022-12-19T09:14:41.085Z,28.70
2022-12-19T09:17:08.912Z,29.83
2022-12-19T09:19:37.134Z,29.60
2022-12-19T09:22:05.417Z,29.27
2022-12-19T09:24:33.100Z,29.77
2022-12-19T09:27:02.381Z,31.27
2022-12-19T09:29:35.080Z,30.23
2022-12-19T09:32:03.441Z,31.83
2022-12-19T09:34:37.833Z,31.83
2022-12-19T09:37:07.499Z,30.73
2022-12-19T09:39:35.956Z,29.93
2022-12-19T09:42:23.247Z,31.93
2022-12-19T09:45:09.257Z,31.87
2022-12-19T09:47:45.737Z,30.90
2022-12-19T09:50:27.007Z,31.83
2022-12-19T09:53:00.679Z,30.90
2022-12-19T09:55:34.051Z,30.27
2022-12-19T09:58:11.058Z,31.13
2022-12-19T10:00:43.199Z,31.30
2022-12-19T10:03:19.068Z,32.07
2022-12-19T10:07:00.902Z,30.77
2022-12-19T10:09:12.247Z,31.77
2022-12-19T10:12:46.512Z,30.83
2022-12-19T10:14:50.422Z,30.37
2022-12-19T10:17:28.131Z,31.20
2022-12-19T10:20:20.195Z,31.83
2022-12-19T10:23:00.091Z,31.23
2022-12-19T10:25:37.606Z,31.03
2022-12-19T10:28:16.888Z,31.53
2022-12-19T10:30:52.079Z,30.10
2022-12-19T10:33:27.707Z,30.97
2022-12-19T10:36:01.801Z,30.43
2022-12-19T10:38:36.696Z,31.93
2022-12-19T10:41:16.677Z,32.77
2022-12-19T10:43:53.515Z,31.37
2022-12-19T10:46:33.416Z,32.13
2022-12-19T10:49:01.204Z,31.73
2022-12-19T10:51:32.687Z,29.87
2022-12-19T10:54:01.495Z,31.50
2022-12-19T10:56:37.173Z,32.03
2022-12-19T10:59:16.139Z,30.27
2022-12-19T11:01:46.124Z,31.70
2022-12-19T11:04:30.213Z,30.93
2022-12-19T11:07:07.553Z,31.40
2022-12-19T11:09:39.600Z,30.57
2022-12-19T11:15:33.039Z,32.67
2022-12-19T11:19:29.692Z,31.47
2022-12-19T11:29:14.855Z,32.33
2022-12-19T11:29:25.068Z,32.33
2022-12-19T11:30:08.662Z,32.07
2022-12-19T11:30:46.769Z,31.90
2022-12-19T11:32:41.342Z,32.37
2022-12-19T11:35:25.379Z,32.47
2022-12-19T11:38:06.571Z,31.73
2022-12-19T11:40:46.530Z,33.10
2022-12-19T11:43:43.611Z,33.17
2022-12-19T11:46:21.459Z,32.20
2022-12-19T11:48:54.691Z,32.47
2022-12-19T11:51:29.314Z,31.73
2022-12-19T11:54:07.235Z,32.10
2022-12-19T11:56:35.651Z,32.67
2022-12-19T11:59:13.353Z,32.23
2022-12-19T12:01:53.248Z,30.53
2022-12-19T12:04:39.732Z,32.10
2022-12-19T12:07:19.231Z,31.57
2022-12-19T12:14:40.620Z,32.17
2022-12-19T12:22:18.887Z,29.80
2022-12-19T12:30:59.035Z,31.67
2022-12-19T12:31:06.805Z,31.47
2022-12-19T12:31:18.171Z,29.47
2022-12-19T12:31:52.736Z,32.23
2022-12-19T12:32:04.007Z,32.93
2022-12-19T12:35:48.611Z,32.33
2022-12-19T12:40:03.656Z,32.77
2022-12-19T12:42:44.444Z,34.40
2022-12-19T12:45:20.682Z,32.43
2022-12-19T12:47:52.520Z,33.77
2022-12-19T12:50:23.688Z,32.20
2022-12-19T12:52:55.738Z,33.00
2022-12-19T12:55:29.639Z,33.83
2022-12-19T12:57:57.721Z,33.03
2022-12-19T13:00:28.209Z,32.43
2022-12-19T13:03:03.510Z,32.93
2022-12-19T13:05:42.118Z,31.97
2022-12-19T13:08:36.177Z,33.07
2022-12-19T13:11:07.556Z,31.53
2022-12-19T13:13:56.313Z,33.27
2022-12-19T13:16:52.982Z,34.00
2022-12-19T13:19:28.414Z,33.53
2022-12-19T13:22:19.401Z,32.67
2022-12-19T13:24:50.040Z,32.10
2022-12-19T13:27:40.380Z,32.97
2022-12-19T13:30:19.178Z,33.10
2022-12-19T13:33:12.422Z,32.10
2022-12-19T13:37:55.702Z,32.80
2022-12-19T13:40:01.047Z,32.23
2022-12-19T13:41:48.015Z,32.60
2022-12-19T13:44:20.206Z,32.20
2022-12-19T13:46:47.953Z,32.37
2022-12-19T13:49:20.295Z,35.10
2022-12-19T13:51:50.096Z,32.90
2022-12-19T13:54:26.884Z,32.97
2022-12-19T13:56:55.745Z,36.57
2022-12-19T13:59:27.465Z,35.90
2022-12-19T14:01:56.427Z,34.87
2022-12-19T14:04:29.999Z,35.97
2022-12-19T14:07:01.462Z,34.77
2022-12-19T14:11:26.111Z,35.70
2022-12-19T14:13:46.259Z,35.13
2022-12-19T14:15:34.086Z,34.27
2022-12-19T14:18:41.899Z,35.23
2022-12-19T14:22:10.785Z,33.33
2022-12-19T14:23:43.736Z,34.50
2022-12-19T14:28:17.739Z,35.87
2022-12-19T14:29:09.364Z,33.43
2022-12-19T14:32:40.282Z,33.17
2022-12-19T14:35:03.975Z,32.63
2022-12-19T14:38:13.073Z,32.03
2022-12-19T14:40:24.447Z,33.60
2022-12-19T14:43:58.918Z,35.00
2022-12-19T14:54:07.518Z,34.73
2022-12-19T14:54:15.867Z,34.93
2022-12-19T14:54:41.627Z,33.67
2022-12-19T14:58:51.207Z,34.10
2022-12-19T15:01:09.741Z,34.03
2022-12-19T15:03:22.848Z,33.27
2022-12-19T15:05:53.206Z,33.53
2022-12-19T15:09:50.558Z,33.90
2022-12-19T15:11:58.223Z,33.80
2022-12-19T15:14:53.929Z,34.53
2022-12-19T15:17:26.719Z,33.30
2022-12-19T15:19:55.859Z,35.47
2022-12-19T15:22:25.494Z,33.70
2022-12-19T15:24:54.238Z,36.57
2022-12-19T15:27:22.809Z,35.60
2022-12-19T15:29:50.952Z,34.70
2022-12-19T15:32:19.021Z,34.87
2022-12-19T15:34:51.466Z,35.43
2022-12-19T15:37:19.707Z,37.13
2022-12-19T15:39:48.776Z,45.93
2022-12-19T15:42:20.767Z,46.53
2022-12-19T15:44:50.229Z,38.43
2022-12-19T15:47:20.559Z,38.87
2022-12-19T15:49:48.477Z,37.80
2022-12-19T15:52:18.904Z,37.83
2022-12-19T15:54:50.113Z,36.50
2022-12-19T15:57:25.302Z,37.40
2022-12-19T15:59:53.461Z,38.30
2022-12-19T16:02:23.760Z,38.30
2022-12-19T16:04:56.902Z,36.83
2022-12-19T16:07:30.423Z,37.60
2022-12-19T16:09:59.434Z,38.67
2022-12-19T16:12:32.772Z,38.93
2022-12-19T16:15:02.568Z,37.63
2022-12-19T16:17:33.173Z,37.03
2022-12-19T16:20:00.891Z,37.97
2022-12-19T16:22:29.950Z,35.97
2022-12-19T16:24:59.045Z,35.27
2022-12-19T16:27:28.957Z,35.07
2022-12-19T16:29:59.331Z,36.10
2022-12-19T16:32:27.137Z,35.07
2022-12-19T16:34:55.653Z,36.97
2022-12-19T16:37:28.505Z,34.97
2022-12-19T16:39:56.419Z,36.50
2022-12-19T16:42:25.606Z,35.87
2022-12-19T16:44:53.590Z,37.13
2022-12-19T16:47:21.363Z,37.53
2022-12-19T16:49:49.155Z,36.77
2022-12-19T16:52:16.902Z,36.63
2022-12-19T16:54:44.595Z,36.80
2022-12-19T16:57:20.635Z,36.10
2022-12-19T16:59:51.307Z,37.60
2022-12-19T17:02:40.699Z,37.23
2022-12-19T17:05:16.127Z,38.83
2022-12-19T17:07:44.627Z,40.57
2022-12-19T17:10:13.164Z,38.00
2022-12-19T17:12:41.404Z,38.90
2022-12-19T17:15:22.419Z,39.37
2022-12-19T17:17:51.163Z,39.07
2022-12-19T17:20:21.782Z,37.60
2022-12-19T17:22:49.671Z,38.10
2022-12-19T17:25:21.083Z,38.77
2022-12-19T17:27:49.632Z,38.63
2022-12-19T17:30:19.919Z,38.07
2022-12-19T17:32:50.326Z,38.00
2022-12-19T17:35:25.731Z,37.97
2022-12-19T17:37:57.548Z,37.57
2022-12-19T17:40:27.171Z,37.17
2022-12-19T17:42:55.544Z,38.67
2022-12-19T17:45:25.798Z,47.63
2022-12-19T17:48:02.046Z,49.40
2022-12-19T17:50:31.699Z,50.10
2022-12-19T17:52:59.790Z,52.83
2022-12-19T17:55:29.567Z,53.00
2022-12-19T17:57:58.106Z,51.30
2022-12-19T18:00:30.924Z,49.27
2022-12-19T18:03:04.527Z,49.53
2022-12-19T18:05:35.744Z,50.03
2022-12-19T18:08:04.675Z,48.90
2022-12-19T18:10:33.094Z,48.73
2022-12-19T18:13:01.093Z,47.87
2022-12-19T18:15:30.204Z,51.17
2022-12-19T18:17:58.529Z,48.73
2022-12-19T18:20:31.780Z,49.30
2022-12-19T18:23:04.216Z,51.10
2022-12-19T18:25:35.177Z,47.70
2022-12-19T18:28:03.152Z,49.33
2022-12-19T18:30:32.373Z,52.03
2022-12-19T18:33:02.372Z,49.50
2022-12-19T18:35:34.875Z,47.70
2022-12-19T18:38:07.883Z,45.40
2022-12-19T18:40:35.776Z,49.07
2022-12-19T18:43:03.445Z,48.80
2022-12-19T18:45:36.215Z,50.57
2022-12-19T18:48:08.334Z,52.43
2022-12-19T18:50:36.221Z,51.93
2022-12-19T18:53:07.477Z,49.30
2022-12-19T18:55:35.582Z,46.37
2022-12-19T18:58:03.365Z,41.73
2022-12-19T19:00:31.721Z,39.23
2022-12-19T19:03:04.020Z,38.40
2022-12-19T19:05:33.273Z,39.70
2022-12-19T19:08:12.892Z,39.07
2022-12-19T19:10:40.611Z,40.23
2022-12-19T19:13:12.177Z,40.90
2022-12-19T19:15:46.536Z,38.80
2022-12-19T19:18:17.442Z,37.97
2022-12-19T19:20:46.833Z,38.33
2022-12-19T19:23:15.229Z,37.40
2022-12-19T19:25:43.410Z,38.20
2022-12-19T19:28:11.233Z,37.37
2022-12-19T19:30:40.673Z,35.87
2022-12-19T19:33:14.076Z,36.97
2022-12-19T19:35:45.828Z,37.77
2022-12-19T19:38:16.342Z,36.83
2022-12-19T19:40:44.148Z,35.73
2022-12-19T19:43:11.827Z,34.33
2022-12-19T19:45:43.366Z,33.13
2022-12-19T19:48:11.833Z,35.23
2022-12-19T19:50:39.928Z,34.07
2022-12-19T19:53:09.035Z,34.03
2022-12-19T19:55:36.815Z,32.73
2022-12-19T19:58:05.209Z,32.90
2022-12-19T20:00:33.181Z,33.33
2022-12-19T20:03:05.612Z,32.57
2022-12-19T20:05:35.937Z,32.63
2022-12-19T20:08:03.797Z,31.50
2022-12-19T20:10:32.954Z,31.43
2022-12-19T20:13:00.782Z,31.70
2022-12-19T20:15:28.551Z,33.80
2022-12-19T20:17:56.281Z,33.40
2022-12-19T20:20:25.016Z,32.67
2022-12-19T20:22:52.808Z,32.67
2022-12-19T20:25:20.440Z,41.07
2022-12-19T20:27:49.419Z,40.70
2022-12-19T20:30:18.083Z,39.97
2022-12-19T20:32:45.768Z,40.90
2022-12-19T20:35:15.037Z,39.83
2022-12-19T20:37:43.008Z,41.50
2022-12-19T20:40:11.632Z,41.27
2022-12-19T20:42:39.312Z,40.77
2022-12-19T20:45:09.328Z,41.43
2022-12-19T20:47:37.134Z,43.20
2022-12-19T20:50:06.023Z,45.07
2022-12-19T20:52:33.878Z,43.47
2022-12-19T20:55:01.592Z,44.43
2022-12-19T20:57:30.442Z,45.10
2022-12-19T20:59:58.159Z,43.40
2022-12-19T21:02:27.514Z,43.13
2022-12-19T21:04:55.456Z,40.77
2022-12-19T21:07:23.666Z,41.43
2022-12-19T21:09:53.928Z,39.00
2022-12-19T21:12:22.479Z,42.50
2022-12-19T21:14:50.730Z,47.53
2022-12-19T21:17:18.456Z,47.90
2022-12-19T21:19:48.314Z,49.23
2022-12-19T21:22:16.227Z,46.57
2022-12-19T21:24:43.855Z,49.10
2022-12-19T21:27:11.519Z,45.57
2022-12-19T21:29:39.399Z,44.90
2022-12-19T21:32:09.126Z,47.07
2022-12-19T21:34:38.747Z,44.97
2022-12-19T21:37:07.772Z,44.13
2022-12-19T21:39:35.401Z,45.50
2022-12-19T21:42:03.552Z,43.97
2022-12-19T21:44:31.409Z,40.83
2022-12-19T21:46:59.387Z,43.17
2022-12-19T21:49:27.253Z,44.60
2022-12-19T21:51:55.346Z,45.30
2022-12-19T21:54:24.793Z,45.23
2022-12-19T21:56:52.457Z,44.40
2022-12-19T21:59:20.136Z,46.40
2022-12-19T22:01:47.981Z,46.53
2022-12-19T22:04:21.157Z,45.93
2022-12-19T22:06:50.004Z,43.77
2022-12-19T22:09:20.172Z,45.83
2022-12-19T22:11:49.668Z,44.93
2022-12-19T22:14:18.227Z,44.87
2022-12-19T22:16:46.140Z,43.70
2022-12-19T22:19:15.134Z,42.17
2022-12-19T22:21:42.837Z,40.80
2022-12-19T22:24:12.637Z,40.03
2022-12-19T22:26:40.727Z,40.30
2022-12-19T22:29:11.547Z,40.13
2022-12-19T22:31:40.703Z,38.50
2022-12-19T22:34:11.233Z,40.40
2022-12-19T22:36:40.599Z,43.20
2022-12-19T22:39:10.747Z,43.63
2022-12-19T22:41:39.500Z,45.13
2022-12-19T22:44:09.781Z,43.17
2022-12-19T22:46:38.722Z,45.37
2022-12-19T22:49:09.270Z,48.97
2022-12-19T22:51:37.800Z,48.77
2022-12-19T22:54:06.535Z,50.43
2022-12-19T22:56:35.554Z,49.07
2022-12-19T22:59:06.484Z,47.93
2022-12-19T23:01:37.893Z,44.27
2022-12-19T23:04:07.811Z,45.10
2022-12-19T23:06:37.156Z,46.77
2022-12-19T23:09:06.255Z,45.60
2022-12-19T23:11:36.103Z,44.17
2022-12-19T23:14:05.465Z,41.80
2022-12-19T23:16:33.168Z,44.87
2022-12-19T23:19:02.220Z,44.80
2022-12-19T23:21:30.025Z,42.40
2022-12-19T23:23:57.827Z,41.93
2022-12-19T23:26:28.074Z,39.37
2022-12-19T23:28:58.937Z,40.63
2022-12-19T23:31:27.738Z,39.50
2022-12-19T23:33:56.334Z,39.30
2022-12-19T23:39:14.981Z,36.43
2022-12-19T23:41:42.998Z,36.83
2022-12-19T23:44:11.756Z,37.03
2022-12-19T23:46:39.960Z,38.07
2022-12-19T23:49:07.970Z,38.70
2022-12-19T23:51:37.029Z,38.33
2022-12-19T23:54:05.005Z,36.93
2022-12-19T23:56:33.226Z,38.33
2022-12-19T23:59:01.282Z,36.83
